Time;durP1;ratioP1;P1;durP2;ratioP2;P2;SDS_P1;SDS_P2;PMS_P1;PMS_P2;Temp;Humidity;BMP_temperature;BMP_pressure;BME280_temperature;BME280_humidity;BME280_pressure;Samples;Min_cycle;Max_cycle;Signal;HPM_P1;HPM_P2
2023/02/03 09:12:21;;;;;;;1.50;1.23;;;3.80;99.90;;;;;;5131421;27;20294;-77
2023/02/03 09:19:23;;;;;;;5.20;2.23;;;3.80;99.90;;;;;;5131692;27;20280;-77
2023/02/03 09:26:22;;;;;;;6.83;1.63;;;3.80;99.90;;;;;;5132761;27;20279;-78
2023/02/03 09:30:38;;;;;;;2.27;1.90;;;3.90;99.90;;;;;;5131962;27;20647;-78
2023/02/03 09:34:24;;;;;;;2.00;1.80;;;4.10;99.90;;;;;;5134775;27;20270;-78
2023/02/03 09:36:50;;;;;;;4.00;1.60;;;4.10;99.90;;;;;;5134915;28;20257;-78
2023/02/03 09:43:34;;;;;;;3.03;1.90;;;3.90;99.90;;;;;;5134357;27;20295;-78
2023/02/03 09:49:41;;;;;;;3.10;1.70;;;4.00;99.90;;;;;;5150624;27;20336;-77
2023/02/03 09:54:15;;;;;;;2.80;2.27;;;4.10;99.90;;;;;;5149882;27;20387;-78
2023/02/03 09:58:15;;;;;;;2.10;1.90;;;4.10;99.90;;;;;;5153234;27;20344;-78
2023/02/03 10:01:42;;;;;;;6.43;3.37;;;4.20;99.90;;;;;;5134520;27;20611;-78
2023/02/03 10:04:42;;;;;;;7.33;3.73;;;4.30;99.90;;;;;;5134031;28;20309;-78
2023/02/03 10:07:24;;;;;;;4.20;2.53;;;4.30;99.90;;;;;;5135425;27;20173;-78
2023/02/03 10:09:58;;;;;;;8.30;3.93;;;4.50;99.90;;;;;;5134884;28;20185;-79
2023/02/03 10:12:39;;;;;;;23.00;11.33;;;4.50;99.90;;;;;;5135832;28;20193;-79
2023/02/03 10:15:25;;;;;;;3.27;2.33;;;4.50;99.90;;;;;;5136904;28;20264;-79
2023/02/03 10:17:56;;;;;;;3.30;2.33;;;4.50;99.90;;;;;;5134128;28;20192;-78
2023/02/03 10:20:42;;;;;;;4.20;2.40;;;4.60;99.90;;;;;;5135739;27;20664;-78
2023/02/03 10:23:38;;;;;;;6.80;3.37;;;4.50;99.90;;;;;;5132188;27;20189;-78
2023/02/03 10:26:09;;;;;;;3.67;1.53;;;4.60;99.90;;;;;;5128041;27;20177;-78
2023/02/03 10:28:42;;;;;;;2.93;2.30;;;4.60;99.90;;;;;;5136723;28;20167;-79
2023/02/03 10:31:20;;;;;;;2.60;2.17;;;4.60;99.90;;;;;;5143369;27;20168;-78
2023/02/03 10:33:46;;;;;;;3.00;2.30;;;4.70;99.90;;;;;;5137980;28;20212;-77
2023/02/03 10:36:26;;;;;;;3.60;2.20;;;4.70;99.90;;;;;;5137601;28;20177;-78
2023/02/03 10:38:54;;;;;;;3.10;2.30;;;4.60;99.90;;;;;;5136005;28;20158;-78
2023/02/03 10:41:22;;;;;;;2.17;1.63;;;4.60;99.90;;;;;;5140700;28;20360;-78
2023/02/03 10:43:50;;;;;;;4.03;1.83;;;4.50;99.90;;;;;;5140378;28;20198;-78
2023/02/03 10:46:25;;;;;;;4.50;1.57;;;4.50;99.90;;;;;;5141224;27;20167;-78
2023/02/03 10:48:51;;;;;;;2.30;1.87;;;4.50;99.90;;;;;;5132503;27;20169;-79
2023/02/03 10:51:21;;;;;;;2.13;1.93;;;4.60;99.90;;;;;;5135342;28;20192;-78
2023/02/03 10:53:51;;;;;;;2.70;1.60;;;4.70;99.90;;;;;;5135408;28;20197;-78
2023/02/03 10:56:21;;;;;;;1.90;1.70;;;4.80;99.90;;;;;;5130588;28;20637;-78
2023/02/03 10:58:57;;;;;;;3.07;1.80;;;4.80;99.90;;;;;;5132946;28;20179;-78
2023/02/03 11:01:26;;;;;;;1.83;1.67;;;4.90;99.90;;;;;;5133851;28;20205;-78
2023/02/03 11:04:02;;;;;;;3.97;1.87;;;4.80;99.90;;;;;;5134428;28;20220;-79
2023/02/03 11:06:30;;;;;;;1.87;1.00;;;4.90;99.90;;;;;;5132455;28;20166;-78
2023/02/03 11:08:56;;;;;;;2.53;1.60;;;5.00;99.90;;;;;;5132929;27;20280;-80
2023/02/03 11:11:31;;;;;;;2.93;2.33;;;4.90;99.90;;;;;;5126938;28;20178;-79
2023/02/03 11:14:03;;;;;;;2.43;2.03;;;4.90;99.90;;;;;;5116287;28;20283;-78
2023/02/03 11:16:34;;;;;;;5.60;3.57;;;4.90;99.90;;;;;;5116078;28;20201;-78
2023/02/03 11:19:18;;;;;;;6.20;2.53;;;5.00;99.90;;;;;;5116594;28;20327;-79
2023/02/03 11:21:46;;;;;;;3.17;1.67;;;5.00;99.90;;;;;;5119241;28;20186;-79
2023/02/03 11:24:36;;;;;;;2.07;1.90;;;5.00;99.90;;;;;;5120754;28;20200;-79
2023/02/03 11:27:17;;;;;;;2.23;1.47;;;4.90;99.90;;;;;;5117830;28;20643;-77
2023/02/03 11:29:48;;;;;;;3.73;1.83;;;5.00;99.90;;;;;;5116620;28;20253;-78
2023/02/03 11:32:33;;;;;;;2.03;1.63;;;4.90;99.90;;;;;;5115179;28;20203;-77
2023/02/03 11:35:03;;;;;;;3.23;1.60;;;4.90;99.90;;;;;;5117261;28;20175;-79
2023/02/03 11:37:38;;;;;;;1.83;1.33;;;4.90;99.90;;;;;;5118597;28;20176;-77
2023/02/03 11:40:07;;;;;;;3.13;1.50;;;4.80;99.90;;;;;;5118880;28;20193;-79
2023/02/03 11:42:37;;;;;;;5.33;2.90;;;4.80;99.90;;;;;;5117515;28;20247;-78
2023/02/03 11:45:24;;;;;;;3.67;2.80;;;4.80;99.90;;;;;;5119429;28;20151;-78
2023/02/03 11:48:14;;;;;;;3.40;1.80;;;4.80;99.90;;;;;;5120219;28;20166;-78
2023/02/03 11:50:57;;;;;;;2.57;1.70;;;4.90;99.90;;;;;;5122052;28;20166;-79
2023/02/03 11:54:24;;;;;;;1.93;1.57;;;5.00;99.90;;;;;;5122894;28;20204;-79
2023/02/03 11:56:56;;;;;;;1.80;1.67;;;5.00;99.90;;;;;;5095478;28;20654;-78
2023/02/03 11:59:38;;;;;;;2.90;1.67;;;5.00;99.90;;;;;;5121389;28;20191;-79
2023/02/03 12:02:22;;;;;;;2.23;1.57;;;5.00;99.90;;;;;;5123780;28;20159;-79
2023/02/03 12:05:25;;;;;;;1.70;1.60;;;5.00;99.90;;;;;;5122155;28;20157;-79
2023/02/03 12:07:59;;;;;;;7.80;3.50;;;5.00;99.90;;;;;;5117205;28;20694;-78
2023/02/03 12:10:28;;;;;;;2.43;1.83;;;5.00;99.90;;;;;;5120369;28;20159;-81
2023/02/03 12:13:15;;;;;;;7.07;2.93;;;4.90;99.90;;;;;;5118313;28;20196;-79
2023/02/03 12:16:07;;;;;;;2.53;1.60;;;4.90;99.90;;;;;;5118099;28;20175;-81
2023/02/03 12:18:47;;;;;;;5.50;3.43;;;4.90;99.90;;;;;;5116420;28;20172;-81
2023/02/03 12:21:56;;;;;;;2.03;1.60;;;5.00;99.90;;;;;;5116685;28;20183;-79
2023/02/03 12:24:27;;;;;;;1.70;1.03;;;5.00;99.90;;;;;;5073901;28;20169;-79
2023/02/03 12:27:01;;;;;;;9.87;3.73;;;5.00;99.90;;;;;;5109449;28;20456;-81
2023/02/03 12:29:35;;;;;;;4.33;2.03;;;5.00;99.90;;;;;;5115406;28;20466;-80
2023/02/03 12:32:17;;;;;;;1.93;1.37;;;5.00;99.90;;;;;;5117060;28;20183;-79
2023/02/03 12:35:01;;;;;;;1.50;1.30;;;5.10;99.90;;;;;;5122593;28;20247;-79
2023/02/03 12:37:45;;;;;;;6.83;1.70;;;5.10;99.90;;;;;;5126616;28;20182;-79
2023/02/03 12:40:36;;;;;;;4.37;2.93;;;5.10;99.90;;;;;;5128092;28;20215;-79
2023/02/03 12:43:37;;;;;;;3.53;2.60;;;5.10;99.90;;;;;;5133764;28;20195;-79
2023/02/03 12:46:15;;;;;;;2.93;1.63;;;5.20;99.90;;;;;;5104276;28;20198;-82
2023/02/03 12:49:18;;;;;;;2.33;1.90;;;5.30;99.90;;;;;;5120789;28;20389;-80
2023/02/03 12:51:54;;;;;;;3.47;2.57;;;5.30;99.90;;;;;;5068850;28;20636;-79
2023/02/03 12:54:56;;;;;;;2.83;1.90;;;5.40;99.90;;;;;;5118654;28;20925;-79
2023/02/03 12:57:36;;;;;;;3.10;2.27;;;5.50;99.90;;;;;;5114888;28;20168;-78
2023/02/03 13:00:42;;;;;;;8.40;4.30;;;5.50;99.90;;;;;;5115770;28;20222;-78
2023/02/03 13:03:49;;;;;;;4.40;3.10;;;5.50;99.90;;;;;;5115014;28;20444;-78
2023/02/03 13:06:40;;;;;;;2.00;1.17;;;5.50;99.90;;;;;;5114807;28;20218;-77
2023/02/03 13:09:38;;;;;;;2.63;1.60;;;5.60;99.90;;;;;;5116717;28;20437;-79
2023/02/03 13:12:25;;;;;;;5.87;3.03;;;5.70;99.90;;;;;;5118515;28;20168;-81
2023/02/03 13:15:17;;;;;;;3.17;1.90;;;5.80;99.90;;;;;;5117563;28;20254;-80
2023/02/03 13:18:09;;;;;;;3.20;2.20;;;5.70;99.90;;;;;;5119524;28;20164;-79
2023/02/03 13:20:36;;;;;;;1.73;1.00;;;5.80;99.90;;;;;;5118604;28;20188;-79
2023/02/03 13:23:14;;;;;;;1.77;1.20;;;5.50;99.90;;;;;;5118667;28;20211;-78
2023/02/03 13:25:49;;;;;;;1.80;1.20;;;5.50;99.90;;;;;;5117285;28;20311;-78
2023/02/03 13:28:38;;;;;;;1.23;1.00;;;5.50;99.90;;;;;;5119392;28;20175;-79
2023/02/03 13:31:29;;;;;;;4.73;1.67;;;5.50;99.90;;;;;;5119848;28;20183;-79
2023/02/03 13:34:07;;;;;;;1.57;1.47;;;5.60;99.90;;;;;;5116291;28;20207;-80
2023/02/03 13:36:41;;;;;;;4.73;1.67;;;5.60;99.90;;;;;;5119298;28;20172;-79
2023/02/03 13:39:31;;;;;;;1.97;1.47;;;5.70;99.90;;;;;;5120039;28;20172;-80
2023/02/03 13:42:24;;;;;;;1.70;1.27;;;5.80;99.90;;;;;;5115526;28;20179;-79
2023/02/03 13:44:56;;;;;;;1.73;1.50;;;5.60;99.90;;;;;;5116847;28;20270;-79
2023/02/03 13:47:30;;;;;;;3.47;2.33;;;5.50;99.90;;;;;;5118682;28;20705;-78
2023/02/03 13:50:16;;;;;;;3.83;2.33;;;5.40;99.90;;;;;;5120438;28;20166;-80
2023/02/03 13:52:55;;;;;;;2.20;1.23;;;5.30;99.90;;;;;;5116692;28;20196;-79
2023/02/03 13:55:28;;;;;;;2.73;1.77;;;5.30;99.90;;;;;;5119033;28;20220;-79
2023/02/03 13:57:54;;;;;;;1.43;1.30;;;5.30;99.90;;;;;;5120211;28;20156;-79
2023/02/03 14:00:42;;;;;;;8.70;5.13;;;5.30;99.90;;;;;;5118089;28;20226;-79
2023/02/03 14:03:38;;;;;;;5.40;3.60;;;5.30;99.90;;;;;;5117387;28;20510;-80
2023/02/03 14:06:09;;;;;;;1.53;1.33;;;5.20;99.90;;;;;;5119152;28;20176;-84
2023/02/03 14:08:34;;;;;;;4.60;2.93;;;5.20;99.90;;;;;;5121260;28;20203;-84
2023/02/03 14:11:34;;;;;;;6.20;3.77;;;5.20;99.90;;;;;;5122218;28;20660;-80
2023/02/03 14:14:06;;;;;;;7.73;3.77;;;5.10;99.90;;;;;;5118627;28;20200;-80
2023/02/03 14:16:37;;;;;;;3.97;2.50;;;5.10;99.90;;;;;;5119992;28;20199;-80
2023/02/03 14:19:03;;;;;;;4.30;3.00;;;5.20;99.90;;;;;;5116465;28;20183;-79
2023/02/03 14:21:55;;;;;;;2.33;1.83;;;5.10;99.90;;;;;;5116555;28;20207;-78
2023/02/03 14:24:22;;;;;;;1.73;1.53;;;5.00;99.90;;;;;;5118333;28;20160;-79
2023/02/03 14:26:51;;;;;;;2.53;1.30;;;4.90;99.90;;;;;;5117604;28;20190;-79
2023/02/03 14:29:33;;;;;;;1.33;1.23;;;4.90;99.90;;;;;;5117695;28;20233;-78
2023/02/03 14:32:08;;;;;;;2.07;1.60;;;4.80;99.90;;;;;;5117826;28;20233;-81
2023/02/03 14:34:46;;;;;;;1.60;1.50;;;4.80;99.90;;;;;;5121235;28;20184;-80
2023/02/03 14:37:26;;;;;;;1.87;1.40;;;4.80;99.90;;;;;;5120272;28;20279;-80
2023/02/03 14:40:34;;;;;;;2.00;1.30;;;4.70;99.90;;;;;;5120547;28;20191;-80
